Palava, Texas
Current Conditions -  °F | °C
As of 4:55 AM on Thursday 27 Nov 2014 (Local Time) from KSWW Reporting Station
Clear Clear  
Wind Chill:   Ceiling: Unl
Heat Index:   Visibility: 10mi
Dew Point:   Wind: 7mph
Humidity: 80%   Direction: 40°NE
Pressure: 30.47"   Gusts: NA
Location:  32.5104°N, 100.305°W
Report Text: KSWW 271055Z AUTO 04006KT 10SM CLR 03/00 A3047 RMK AO2 T00281003
Loading
Personal Weather Stations






























Interactive Weather Map New forecast layout! Learn more

10-Day Weather Forecast

Advertisements
Track Severe Weather on mobile